createdAt,value
2023-02-14T00:00:52.586Z,98869.97
2023-02-14T00:03:28.007Z,98882.75
2023-02-14T00:05:55.769Z,98883.95
2023-02-14T00:08:24.128Z,98882.06
2023-02-14T00:10:51.896Z,98887.52
2023-02-14T00:13:19.693Z,98889.14
2023-02-14T00:15:47.593Z,98885.65
2023-02-14T00:18:15.540Z,98884.08
2023-02-14T00:20:43.353Z,98881.92
2023-02-14T00:23:11.356Z,98887.62
2023-02-14T00:25:39.243Z,98883.36
2023-02-14T00:28:07.132Z,98882.45
2023-02-14T00:30:35.173Z,98882.70
2023-02-14T00:33:05.926Z,98877.61
2023-02-14T00:35:37.918Z,98871.08
2023-02-14T00:38:05.672Z,98864.44
2023-02-14T00:40:33.389Z,98854.10
2023-02-14T00:43:01.460Z,98845.52
2023-02-14T00:45:29.312Z,98844.47
2023-02-14T00:47:57.198Z,98841.92
2023-02-14T00:50:25.007Z,98841.30
2023-02-14T00:52:52.777Z,98840.14
2023-02-14T00:55:20.697Z,98831.29
2023-02-14T00:57:48.563Z,98834.16
2023-02-14T01:00:17.047Z,98835.23
2023-02-14T01:02:45.021Z,98829.28
2023-02-14T01:05:13.184Z,98844.20
2023-02-14T01:07:41.161Z,98840.02
2023-02-14T01:10:11.681Z,98836.09
2023-02-14T01:12:39.517Z,98834.19
2023-02-14T01:15:09.365Z,98819.91
2023-02-14T01:17:37.849Z,98810.33
2023-02-14T01:20:06.225Z,98802.73
2023-02-14T01:22:38.393Z,98797.36
2023-02-14T01:25:08.013Z,98790.73
2023-02-14T01:27:35.824Z,98789.09
2023-02-14T01:30:04.219Z,98792.33
2023-02-14T01:32:32.523Z,98790.20
2023-02-14T01:35:00.508Z,98788.02
2023-02-14T01:37:29.898Z,98776.66
2023-02-14T01:39:57.766Z,98772.29
2023-02-14T01:42:26.148Z,98774.42
2023-02-14T01:44:56.372Z,98770.73
2023-02-14T01:47:26.589Z,98765.52
2023-02-14T01:49:57.323Z,98760.77
2023-02-14T01:52:37.677Z,98758.55
2023-02-14T01:55:12.590Z,98758.27
2023-02-14T01:57:44.387Z,98758.27
2023-02-14T02:00:31.355Z,98756.50
2023-02-14T02:03:01.720Z,98751.15
2023-02-14T02:05:30.098Z,98748.33
2023-02-14T02:08:00.328Z,98751.73
2023-02-14T02:10:29.313Z,98751.54
2023-02-14T02:13:00.056Z,98751.14
2023-02-14T02:15:30.606Z,98747.23
2023-02-14T02:18:16.568Z,98742.20
2023-02-14T02:20:45.165Z,98734.83
2023-02-14T02:23:25.103Z,98733.93
2023-02-14T02:26:02.237Z,98733.99
2023-02-14T02:28:56.596Z,98734.74
2023-02-14T02:31:38.105Z,98738.23
2023-02-14T02:34:09.616Z,98745.48
2023-02-14T02:36:55.581Z,98743.52
2023-02-14T02:39:24.788Z,98740.13
2023-02-14T02:41:58.613Z,98738.58
2023-02-14T02:44:26.995Z,98743.39
2023-02-14T02:47:13.190Z,98739.89
2023-02-14T02:50:15.482Z,98735.71
2023-02-14T02:53:02.172Z,98738.64
2023-02-14T02:55:56.788Z,98738.80
2023-02-14T02:58:28.114Z,98735.72
2023-02-14T03:00:59.602Z,98734.89
2023-02-14T03:03:48.838Z,98738.40
2023-02-14T03:06:16.745Z,98742.53
2023-02-14T03:08:46.586Z,98742.24
2023-02-14T03:11:15.844Z,98734.59
2023-02-14T03:13:46.648Z,98728.39
2023-02-14T03:16:27.559Z,98723.55
2023-02-14T03:19:04.513Z,98726.31
2023-02-14T03:21:40.114Z,98727.70
2023-02-14T03:24:31.066Z,98731.58
2023-02-14T03:27:04.257Z,98733.52
2023-02-14T03:29:32.141Z,98731.07
2023-02-14T03:32:04.702Z,98732.09
2023-02-14T03:34:37.806Z,98734.83
2023-02-14T03:37:11.406Z,98739.59
2023-02-14T03:39:45.630Z,98737.94
2023-02-14T03:42:18.950Z,98732.52
2023-02-14T03:44:48.656Z,98732.81
2023-02-14T03:47:22.143Z,98728.65
2023-02-14T03:49:59.934Z,98728.77
2023-02-14T03:52:29.745Z,98729.99
2023-02-14T03:54:58.847Z,98734.44
2023-02-14T03:57:32.438Z,98734.13
2023-02-14T04:00:00.570Z,98727.67
2023-02-14T04:02:35.010Z,98726.14
2023-02-14T04:05:06.181Z,98723.70
2023-02-14T04:07:43.675Z,98720.77
2023-02-14T04:10:11.656Z,98717.33
2023-02-14T04:12:39.404Z,98723.11
2023-02-14T04:15:07.831Z,98726.42
2023-02-14T04:17:54.830Z,98727.83
2023-02-14T04:20:22.871Z,98726.34
2023-02-14T04:22:51.968Z,98725.42
2023-02-14T04:25:20.961Z,98724.42
2023-02-14T04:27:48.929Z,98726.62
2023-02-14T04:30:18.138Z,98730.42
2023-02-14T04:32:46.510Z,98727.33
2023-02-14T04:35:14.967Z,98722.52
2023-02-14T04:37:42.960Z,98721.30
2023-02-14T04:40:11.100Z,98720.30
2023-02-14T04:42:39.150Z,98725.09
2023-02-14T04:45:07.378Z,98728.27
2023-02-14T04:47:35.355Z,98729.20
2023-02-14T04:50:03.522Z,98731.73
2023-02-14T04:52:31.493Z,98729.31
2023-02-14T04:54:59.241Z,98723.79
2023-02-14T04:57:27.082Z,98721.27
2023-02-14T04:59:55.092Z,98719.82
2023-02-14T05:02:23.197Z,98720.09
2023-02-14T05:04:51.236Z,98719.31
2023-02-14T05:07:19.308Z,98720.33
2023-02-14T05:09:47.051Z,98717.66
2023-02-14T05:12:15.812Z,98724.05
2023-02-14T05:14:43.835Z,98724.23
2023-02-14T05:17:11.701Z,98724.42
2023-02-14T05:19:39.513Z,98725.33
2023-02-14T05:22:07.535Z,98726.71
2023-02-14T05:24:35.606Z,98730.58
2023-02-14T05:27:03.474Z,98738.48
2023-02-14T05:29:31.341Z,98743.63
2023-02-14T05:31:59.482Z,98741.31
2023-02-14T05:34:27.563Z,98737.07
2023-02-14T05:36:55.659Z,98733.02
2023-02-14T05:39:23.537Z,98735.48
2023-02-14T05:41:51.395Z,98729.46
2023-02-14T05:44:19.422Z,98719.98
2023-02-14T05:46:47.232Z,98723.85
2023-02-14T05:49:15.168Z,98724.19
2023-02-14T05:51:42.981Z,98719.35
2023-02-14T05:54:11.203Z,98714.37
2023-02-14T05:56:39.520Z,98712.39
2023-02-14T05:59:07.398Z,98711.91
2023-02-14T06:01:35.365Z,98723.92
2023-02-14T06:04:03.447Z,98723.64
2023-02-14T06:06:31.404Z,98729.10
2023-02-14T06:08:59.393Z,98739.59
2023-02-14T06:11:27.241Z,98726.89
2023-02-14T06:13:55.046Z,98720.36
2023-02-14T06:16:23.057Z,98725.52
2023-02-14T06:18:50.901Z,98733.27
2023-02-14T06:21:18.687Z,98734.36
2023-02-14T06:23:46.545Z,98731.11
2023-02-14T06:26:14.550Z,98728.92
2023-02-14T06:28:42.930Z,98732.17
2023-02-14T06:31:15.463Z,98733.13
2023-02-14T06:33:43.558Z,98737.77
2023-02-14T06:36:11.327Z,98739.30
2023-02-14T06:38:39.234Z,98737.61
2023-02-14T06:41:07.985Z,98728.77
2023-02-14T06:43:36.386Z,98735.24
2023-02-14T06:46:04.446Z,98746.38
2023-02-14T06:48:32.416Z,98750.27
2023-02-14T06:51:00.695Z,98749.41
2023-02-14T06:53:28.847Z,98753.25
2023-02-14T06:55:56.837Z,98758.88
2023-02-14T06:58:24.758Z,98752.59
2023-02-14T07:00:54.606Z,98747.92
2023-02-14T07:03:22.475Z,98755.64
2023-02-14T07:05:50.357Z,98757.82
2023-02-14T07:08:18.647Z,98752.77
2023-02-14T07:10:46.906Z,98749.92
2023-02-14T07:13:14.780Z,98748.01
2023-02-14T07:15:42.695Z,98755.86
2023-02-14T07:18:11.641Z,98750.10
2023-02-14T07:20:39.710Z,98753.86
2023-02-14T07:23:07.688Z,98751.45
2023-02-14T07:25:35.550Z,98755.50
2023-02-14T07:28:04.854Z,98753.09
2023-02-14T07:30:32.914Z,98747.42
2023-02-14T07:33:00.800Z,98752.29
2023-02-14T07:35:28.660Z,98752.69
2023-02-14T07:37:56.658Z,98746.95
2023-02-14T07:40:25.352Z,98744.11
2023-02-14T07:42:54.372Z,98748.23
2023-02-14T07:45:23.504Z,98743.48
2023-02-14T07:47:52.438Z,98740.27
2023-02-14T07:50:21.280Z,98741.30
2023-02-14T07:52:49.235Z,98743.16
2023-02-14T07:55:17.525Z,98740.13
2023-02-14T07:57:47.062Z,98745.88
2023-02-14T08:00:15.641Z,98740.61
2023-02-14T08:02:43.581Z,98742.05
2023-02-14T08:05:11.709Z,98748.29
2023-02-14T08:07:39.766Z,98745.28
2023-02-14T08:10:07.947Z,98742.36
2023-02-14T08:12:54.323Z,98742.09
2023-02-14T08:15:41.224Z,98743.64
2023-02-14T08:18:09.287Z,98747.61
2023-02-14T08:20:37.080Z,98749.20
2023-02-14T08:23:04.978Z,98745.16
2023-02-14T08:25:33.054Z,98739.83
2023-02-14T08:28:04.750Z,98739.90
2023-02-14T08:30:32.693Z,98741.65
2023-02-14T08:33:00.912Z,98740.16
2023-02-14T08:35:28.695Z,98745.41
2023-02-14T08:37:56.704Z,98747.10
2023-02-14T08:40:24.801Z,98748.08
2023-02-14T08:42:52.636Z,98750.94
2023-02-14T08:45:21.300Z,98752.50
2023-02-14T09:08:54.267Z,98765.55
2023-02-14T09:11:24.712Z,98770.80
2023-02-14T09:14:03.062Z,98773.20
2023-02-14T09:16:34.206Z,98773.69
2023-02-14T09:19:02.472Z,98771.05
2023-02-14T09:21:36.290Z,98771.20
2023-02-14T09:24:04.632Z,98772.06
2023-02-14T09:26:40.576Z,98772.30
2023-02-14T09:29:10.121Z,98774.65
2023-02-14T09:31:38.548Z,98773.95
2023-02-14T09:34:17.602Z,98770.49
2023-02-14T09:36:45.947Z,98769.70
2023-02-14T09:39:17.236Z,98763.41
2023-02-14T09:42:08.337Z,98764.40
2023-02-14T09:44:51.839Z,98758.89
2023-02-14T09:47:47.894Z,98763.40
2023-02-14T09:50:28.822Z,98766.54
2023-02-14T09:53:06.464Z,98766.40
2023-02-14T09:55:50.646Z,98762.65
2023-02-14T09:58:56.178Z,98761.75
2023-02-14T10:01:31.002Z,98765.05
2023-02-14T10:04:13.686Z,98758.33
2023-02-14T10:06:51.009Z,98755.63
2023-02-14T10:09:40.685Z,98758.38
2023-02-14T10:12:22.106Z,98764.13
2023-02-14T10:14:57.362Z,98764.25
2023-02-14T10:17:37.741Z,98766.41
2023-02-14T10:20:41.650Z,98763.02
2023-02-14T10:23:33.688Z,98762.17
2023-02-14T10:26:25.351Z,98758.14
2023-02-14T10:28:56.113Z,98753.04
2023-02-14T10:31:51.701Z,98751.41
2023-02-14T10:34:45.984Z,98749.60
2023-02-14T10:37:33.103Z,98743.12
2023-02-14T10:40:38.205Z,98739.32
2023-02-14T10:43:27.682Z,98739.15
2023-02-14T10:46:23.749Z,98736.35
2023-02-14T10:49:10.492Z,98727.38
2023-02-14T10:51:58.902Z,98727.06
2023-02-14T10:54:42.734Z,98732.05
2023-02-14T10:57:30.980Z,98724.09
2023-02-14T11:00:03.170Z,98717.48
2023-02-14T11:02:48.182Z,98714.61
2023-02-14T11:05:33.642Z,98707.77
2023-02-14T11:08:02.904Z,98705.09
2023-02-14T11:10:33.033Z,98705.39
2023-02-14T11:13:20.038Z,98700.06
2023-02-14T11:15:51.903Z,98697.34
2023-02-14T11:18:25.198Z,98695.16
2023-02-14T11:21:12.586Z,98691.31
2023-02-14T11:23:45.773Z,98691.42
2023-02-14T11:26:33.469Z,98698.65
2023-02-14T11:29:14.958Z,98695.40
2023-02-14T11:31:45.862Z,98693.20
2023-02-14T11:34:40.901Z,98685.35
2023-02-14T11:37:34.365Z,98680.95
2023-02-14T11:40:29.466Z,98682.75
2023-02-14T11:43:20.749Z,98677.77
2023-02-14T11:45:50.340Z,98670.84
2023-02-14T11:48:37.277Z,98671.15
2023-02-14T11:51:14.524Z,98669.17
2023-02-14T11:53:56.357Z,98666.54
2023-02-14T11:56:24.595Z,98660.30
2023-02-14T11:59:04.759Z,98657.34
2023-02-14T12:01:36.100Z,98662.25
2023-02-14T12:04:14.283Z,98655.63
2023-02-14T12:06:44.533Z,98649.38
2023-02-14T12:09:24.772Z,98642.72
2023-02-14T12:12:00.128Z,98641.00
2023-02-14T12:14:34.077Z,98641.38
2023-02-14T12:17:14.261Z,98641.30
2023-02-14T12:19:54.931Z,98633.56
2023-02-14T12:22:28.547Z,98627.23
2023-02-14T12:25:05.925Z,98627.28
2023-02-14T12:27:49.347Z,98631.96
2023-02-14T12:30:23.823Z,98630.62
2023-02-14T12:32:56.474Z,98630.42
2023-02-14T12:35:43.263Z,98628.63
2023-02-14T12:38:27.723Z,98629.80
2023-02-14T12:40:59.279Z,98631.80
2023-02-14T12:43:53.688Z,98629.84
2023-02-14T12:46:31.286Z,98634.76
2023-02-14T12:49:18.775Z,98634.58
2023-02-14T12:52:18.593Z,98633.02
2023-02-14T12:55:06.261Z,98634.45
2023-02-14T12:58:09.255Z,98634.58
2023-02-14T13:00:43.433Z,98636.58
2023-02-14T13:03:52.370Z,98631.20
2023-02-14T13:06:28.026Z,98638.95
2023-02-14T13:09:28.565Z,98645.60
2023-02-14T13:12:08.299Z,98648.23
2023-02-14T13:14:58.159Z,98654.44
2023-02-14T13:17:55.263Z,98653.30
2023-02-14T13:21:11.731Z,98653.50
2023-02-14T13:23:47.150Z,98655.97
2023-02-14T13:26:37.272Z,98660.04
2023-02-14T13:29:11.508Z,98655.98
2023-02-14T13:31:41.653Z,98661.72
2023-02-14T13:34:33.326Z,98664.38
2023-02-14T13:37:06.473Z,98661.00
2023-02-14T13:39:39.100Z,98658.88
2023-02-14T13:42:08.501Z,98655.09
2023-02-14T13:44:44.113Z,98658.65
2023-02-14T13:47:21.864Z,98656.58
2023-02-14T13:49:59.708Z,98654.61
2023-02-14T13:52:40.311Z,98655.78
2023-02-14T13:55:26.404Z,98662.48
2023-02-14T13:58:18.499Z,98668.34
2023-02-14T14:00:48.665Z,98671.05
2023-02-14T14:03:28.925Z,98667.67
2023-02-14T14:06:02.536Z,98665.74
2023-02-14T14:08:32.132Z,98667.40
2023-02-14T14:11:03.132Z,98669.42
2023-02-14T14:13:40.494Z,98668.61
2023-02-14T14:16:24.237Z,98666.15
2023-02-14T14:19:30.622Z,98663.12
2023-02-14T14:22:05.859Z,98660.71
2023-02-14T14:24:40.289Z,98659.97
2023-02-14T14:27:15.130Z,98656.31
2023-02-14T14:29:52.553Z,98653.00
2023-02-14T14:32:26.561Z,98652.71
2023-02-14T14:34:56.246Z,98650.85
2023-02-14T14:37:27.928Z,98652.90
2023-02-14T14:40:07.074Z,98651.35
2023-02-14T14:42:37.838Z,98648.31
2023-02-14T14:45:32.626Z,98647.16
2023-02-14T14:48:08.923Z,98647.08
2023-02-14T14:50:45.476Z,98645.00
2023-02-14T14:53:32.330Z,98644.30
2023-02-14T14:56:01.138Z,98644.87
2023-02-14T14:58:34.939Z,98645.23
2023-02-14T15:01:04.889Z,98646.98
2023-02-14T15:03:36.606Z,98647.98
2023-02-14T15:06:20.598Z,98647.56
2023-02-14T15:08:49.965Z,98645.17
2023-02-14T15:11:47.354Z,98647.29
2023-02-14T15:14:22.827Z,98643.48
2023-02-14T15:16:57.722Z,98647.16
2023-02-14T15:19:35.090Z,98650.41
2023-02-14T15:22:07.778Z,98646.65
2023-02-14T15:24:38.497Z,98653.38
2023-02-14T15:27:22.793Z,98655.54
2023-02-14T15:29:58.540Z,98658.83
2023-02-14T15:32:32.467Z,98657.21
2023-02-14T15:35:07.554Z,98659.83
2023-02-14T15:37:38.906Z,98664.42
2023-02-14T15:40:09.136Z,98665.60
2023-02-14T15:43:01.591Z,98671.00
2023-02-14T15:45:32.721Z,98677.29
2023-02-14T15:48:08.163Z,98680.88
2023-02-14T15:50:46.368Z,98689.95
2023-02-14T15:53:20.586Z,98692.80
2023-02-14T15:55:50.607Z,98697.72
2023-02-14T15:58:22.702Z,98700.13
2023-02-14T16:00:53.395Z,98704.50
2023-02-14T16:03:26.174Z,98705.05
2023-02-14T16:05:55.232Z,98706.73
2023-02-14T16:08:33.091Z,98708.03
2023-02-14T16:11:09.822Z,98710.37
2023-02-14T16:13:42.630Z,98706.02
2023-02-14T16:16:13.926Z,98707.80
2023-02-14T16:19:12.459Z,98715.30
2023-02-14T16:22:04.588Z,98717.43
2023-02-14T16:24:38.022Z,98715.09
2023-02-14T16:27:19.588Z,98713.48
2023-02-14T16:29:59.379Z,98711.36
2023-02-14T16:32:30.721Z,98712.77
2023-02-14T16:35:00.793Z,98714.95
2023-02-14T16:37:36.544Z,98717.84
2023-02-14T16:40:14.171Z,98716.13
2023-02-14T16:42:43.897Z,98717.05
2023-02-14T16:45:17.599Z,98721.02
2023-02-14T16:47:49.111Z,98724.57
2023-02-14T16:50:28.350Z,98717.37
2023-02-14T16:52:57.948Z,98719.18
2023-02-14T16:55:30.097Z,98720.20
2023-02-14T16:58:01.057Z,98719.76
2023-02-14T17:00:29.378Z,98716.87
2023-02-14T17:03:06.208Z,98720.35
2023-02-14T17:05:36.090Z,98717.45
2023-02-14T17:08:06.370Z,98715.92
2023-02-14T17:10:35.784Z,98716.35
2023-02-14T17:13:08.060Z,98713.13
2023-02-14T17:15:49.828Z,98709.63
2023-02-14T17:18:19.024Z,98713.81
2023-02-14T17:20:48.319Z,98720.66
2023-02-14T17:23:16.701Z,98725.58
2023-02-14T17:25:44.925Z,98726.00
2023-02-14T17:28:13.449Z,98724.29
2023-02-14T17:30:41.524Z,98727.99
2023-02-14T17:33:10.035Z,98731.20
2023-02-14T17:35:38.498Z,98731.48
2023-02-14T17:38:06.669Z,98733.91
2023-02-14T17:40:35.256Z,98733.17
2023-02-14T17:43:04.249Z,98736.73
2023-02-14T17:45:32.354Z,98736.21
2023-02-14T17:48:01.880Z,98737.38
2023-02-14T17:50:39.304Z,98738.80
2023-02-14T17:53:07.914Z,98740.11
2023-02-14T17:55:37.174Z,98732.48
2023-02-14T17:58:05.709Z,98729.77
2023-02-14T18:00:34.016Z,98729.13
2023-02-14T18:03:02.160Z,98731.27
2023-02-14T18:05:30.689Z,98731.46
2023-02-14T18:07:58.966Z,98730.23
2023-02-14T18:10:37.880Z,98731.34
2023-02-14T18:13:28.680Z,98734.44
2023-02-14T18:15:57.463Z,98737.85
2023-02-14T18:18:25.658Z,98739.77
2023-02-14T18:20:55.449Z,98739.96
2023-02-14T18:23:24.151Z,98744.35
2023-02-14T18:25:55.668Z,98743.95
2023-02-14T18:28:25.894Z,98741.69
2023-02-14T18:30:54.822Z,98746.23
2023-02-14T18:33:25.387Z,98739.55
2023-02-14T18:35:57.403Z,98733.91
2023-02-14T18:38:25.986Z,98734.19
2023-02-14T18:40:54.598Z,98733.01
2023-02-14T18:43:22.783Z,98727.55
2023-02-14T18:45:51.053Z,98726.45
2023-02-14T18:48:19.305Z,98726.48
2023-02-14T18:50:47.889Z,98728.05
2023-02-14T18:53:18.273Z,98732.33
2023-02-14T18:55:46.552Z,98735.73
2023-02-14T18:58:15.067Z,98739.67
2023-02-14T19:00:43.916Z,98743.38
2023-02-14T19:03:12.035Z,98743.94
2023-02-14T19:05:40.841Z,98742.90
2023-02-14T19:08:09.788Z,98744.25
2023-02-14T19:10:45.860Z,98744.48
2023-02-14T19:13:14.111Z,98746.20
2023-02-14T19:15:42.642Z,98740.79
2023-02-14T19:18:10.971Z,98740.27
2023-02-14T19:20:39.200Z,98740.48
2023-02-14T19:23:07.881Z,98741.84
2023-02-14T19:25:38.968Z,98744.61
2023-02-14T19:28:07.297Z,98748.57
2023-02-14T19:30:40.425Z,98751.09
2023-02-14T19:33:08.874Z,98753.02
2023-02-14T19:35:40.218Z,98754.54
2023-02-14T19:38:08.387Z,98756.52
2023-02-14T19:40:36.421Z,98756.23
2023-02-14T19:43:04.765Z,98755.23
2023-02-14T19:45:33.259Z,98753.79
2023-02-14T19:48:03.539Z,98752.39
2023-02-14T19:50:32.075Z,98753.73
2023-02-14T19:53:00.353Z,98753.27
2023-02-14T19:55:28.892Z,98751.70
2023-02-14T19:57:57.819Z,98750.54
2023-02-14T20:00:29.431Z,98749.10
2023-02-14T20:03:01.713Z,98750.69
2023-02-14T20:05:33.263Z,98749.04
2023-02-14T20:08:01.745Z,98746.15
2023-02-14T20:10:29.920Z,98745.95
2023-02-14T20:12:58.127Z,98746.23
2023-02-14T20:15:30.593Z,98744.77
2023-02-14T20:18:02.641Z,98749.54
2023-02-14T20:21:04.602Z,98755.33
2023-02-14T20:23:34.003Z,98759.67
2023-02-14T20:26:02.576Z,98758.77
2023-02-14T20:28:31.483Z,98756.06
2023-02-14T20:31:00.313Z,98756.46
2023-02-14T20:33:31.413Z,98757.91
2023-02-14T20:36:01.628Z,98760.35
2023-02-14T20:38:32.467Z,98760.93
2023-02-14T20:41:09.042Z,98765.11
2023-02-14T20:43:38.540Z,98763.13
2023-02-14T20:46:10.014Z,98767.61
2023-02-14T20:48:41.192Z,98770.01
2023-02-14T20:51:13.973Z,98767.87
2023-02-14T20:53:46.497Z,98766.40
2023-02-14T20:56:21.224Z,98765.89
2023-02-14T20:59:07.021Z,98767.96
2023-02-14T21:01:37.986Z,98765.11
2023-02-14T21:04:22.112Z,98761.53
2023-02-14T21:06:50.891Z,98763.04
2023-02-14T21:09:22.081Z,98761.15
2023-02-14T21:11:53.865Z,98757.98
2023-02-14T21:14:53.716Z,98757.83
2023-02-14T21:17:21.823Z,98754.63
2023-02-14T21:19:53.355Z,98756.84
2023-02-14T21:22:24.068Z,98758.52
2023-02-14T21:24:52.563Z,98760.46
2023-02-14T21:27:22.984Z,98760.82
2023-02-14T21:29:51.474Z,98758.19
2023-02-14T21:32:30.088Z,98761.14
2023-02-14T21:35:00.919Z,98760.18
2023-02-14T21:37:32.176Z,98757.27
2023-02-14T21:40:00.456Z,98758.56
2023-02-14T21:42:31.357Z,98755.48
2023-02-14T21:45:19.834Z,98750.48
2023-02-14T21:48:09.924Z,98748.49
2023-02-14T21:50:40.963Z,98750.32
2023-02-14T21:53:09.550Z,98753.08
2023-02-14T21:55:38.635Z,98749.27
2023-02-14T21:58:06.807Z,98752.00
2023-02-14T22:00:36.140Z,98753.47
2023-02-14T22:03:13.267Z,98754.90
2023-02-14T22:05:41.798Z,98755.34
2023-02-14T22:08:10.061Z,98753.16
2023-02-14T22:10:41.312Z,98752.54
2023-02-14T22:13:09.586Z,98751.38
2023-02-14T22:15:40.133Z,98748.96
2023-02-14T22:18:08.493Z,98751.84
2023-02-14T22:20:36.679Z,98749.67
2023-02-14T22:23:04.783Z,98752.88
2023-02-14T22:25:33.326Z,98748.89
2023-02-14T22:28:01.596Z,98751.29
2023-02-14T22:30:29.781Z,98750.98
2023-02-14T22:32:58.489Z,98750.59
2023-02-14T22:35:27.273Z,98747.68
2023-02-14T22:37:56.110Z,98747.50
2023-02-14T22:40:24.411Z,98746.95
2023-02-14T22:43:01.555Z,98748.73
2023-02-14T22:45:29.609Z,98743.05
2023-02-14T22:47:57.666Z,98746.83
2023-02-14T22:50:26.217Z,98746.65
2023-02-14T22:52:57.027Z,98749.52
2023-02-14T22:55:31.372Z,98752.52
2023-02-14T22:58:00.770Z,98756.83
2023-02-14T23:00:28.976Z,98751.77
2023-02-14T23:02:57.244Z,98752.34
2023-02-14T23:05:28.069Z,98750.33
2023-02-14T23:07:56.242Z,98749.11
2023-02-14T23:10:24.721Z,98748.59
2023-02-14T23:13:12.249Z,98748.39
2023-02-14T23:15:59.144Z,98749.27
2023-02-14T23:18:46.183Z,98747.42
2023-02-14T23:21:33.116Z,98750.30
2023-02-14T23:24:01.579Z,98748.88
2023-02-14T23:26:29.686Z,98752.51
2023-02-14T23:28:57.798Z,98748.27
2023-02-14T23:31:26.501Z,98745.49
2023-02-14T23:33:54.786Z,98745.59
2023-02-14T23:36:26.032Z,98742.25
2023-02-14T23:38:54.512Z,98745.52
2023-02-14T23:41:41.505Z,98749.52
2023-02-14T23:44:09.914Z,98749.02
2023-02-14T23:46:38.087Z,98752.99
2023-02-14T23:49:06.755Z,98756.85
2023-02-14T23:51:36.380Z,98757.25
2023-02-14T23:54:04.973Z,98759.84
2023-02-14T23:56:33.550Z,98758.50
2023-02-14T23:59:02.030Z,98755.50
